createdAt,value
2019-01-19T00:00:20.063Z,5.10
2019-01-19T00:01:20.049Z,5.30
2019-01-19T00:02:20.041Z,5.20
2019-01-19T00:03:20.035Z,5.40
2019-01-19T00:04:20.015Z,5.60
2019-01-19T00:05:20.018Z,5.30
2019-01-19T00:06:20.001Z,5.50
2019-01-19T00:07:19.995Z,5.40
2019-01-19T00:08:19.985Z,5.50
2019-01-19T00:09:19.964Z,5.30
2019-01-19T00:10:19.948Z,5.70
2019-01-19T00:11:19.937Z,5.60
2019-01-19T00:12:19.941Z,5.40
2019-01-19T00:13:19.918Z,5.70
2019-01-19T00:14:19.900Z,5.70
2019-01-19T00:15:19.890Z,5.70
2019-01-19T00:16:19.880Z,5.40
2019-01-19T00:17:19.865Z,6.20
2019-01-19T00:18:19.859Z,5.50
2019-01-19T00:19:19.860Z,5.60
2019-01-19T00:20:19.833Z,5.60
2019-01-19T00:21:19.826Z,5.60
2019-01-19T00:22:19.824Z,5.20
2019-01-19T00:23:19.799Z,5.20
2019-01-19T00:24:19.799Z,5.30
2019-01-19T00:25:19.789Z,5.00
2019-01-19T00:26:19.778Z,5.20
2019-01-19T00:27:19.762Z,5.20
2019-01-19T00:28:19.792Z,5.30
2019-01-19T00:29:19.748Z,5.60
2019-01-19T00:30:19.730Z,5.30
2019-01-19T00:31:19.720Z,5.60
2019-01-19T00:32:19.722Z,5.10
2019-01-19T00:33:19.703Z,5.30
2019-01-19T00:34:19.692Z,5.00
2019-01-19T00:35:19.682Z,5.60
2019-01-19T00:36:19.674Z,5.20
2019-01-19T00:37:19.654Z,5.10
2019-01-19T00:38:19.652Z,5.30
2019-01-19T00:39:19.636Z,5.00
2019-01-19T00:40:19.621Z,5.20
2019-01-19T00:41:19.613Z,4.80
2019-01-19T00:42:19.608Z,4.80
2019-01-19T00:43:19.594Z,4.80
2019-01-19T00:44:19.583Z,4.60
2019-01-19T00:45:19.571Z,4.90
2019-01-19T00:46:19.565Z,5.20
2019-01-19T00:47:19.555Z,5.10
2019-01-19T00:48:19.552Z,4.70
2019-01-19T00:49:19.526Z,4.60
2019-01-19T00:50:19.524Z,5.00
2019-01-19T00:51:19.511Z,4.60
2019-01-19T00:52:20.456Z,4.60
2019-01-19T00:53:19.485Z,4.80
2019-01-19T00:54:19.478Z,4.40
2019-01-19T00:55:19.461Z,4.90
2019-01-19T00:56:19.454Z,4.00
2019-01-19T00:57:19.452Z,4.50
2019-01-19T00:58:19.438Z,5.10
2019-01-19T00:59:19.426Z,4.50
2019-01-19T01:00:19.411Z,4.60
2019-01-19T01:01:19.405Z,4.60
2019-01-19T01:02:19.396Z,4.90
2019-01-19T01:03:19.385Z,4.70
2019-01-19T01:04:19.373Z,4.40
2019-01-19T01:05:25.191Z,4.50
2019-01-19T01:06:20.352Z,4.60
2019-01-19T01:07:19.336Z,4.80
2019-01-19T01:08:19.327Z,4.50
2019-01-19T01:09:19.325Z,4.40
2019-01-19T01:10:19.308Z,4.30
2019-01-19T01:11:19.301Z,4.30
2019-01-19T01:12:19.287Z,4.70
2019-01-19T01:13:19.278Z,4.20
2019-01-19T01:14:19.265Z,4.30
2019-01-19T01:15:19.262Z,4.00
2019-01-19T01:16:19.244Z,3.80
2019-01-19T01:17:19.238Z,4.30
2019-01-19T01:18:19.220Z,4.20
2019-01-19T01:19:19.210Z,4.10
2019-01-19T01:20:19.208Z,4.10
2019-01-19T01:21:19.206Z,4.50
2019-01-19T01:22:19.186Z,4.60
2019-01-19T01:23:19.170Z,4.30
2019-01-19T01:24:19.160Z,4.40
2019-01-19T01:25:19.150Z,4.40
2019-01-19T01:26:19.146Z,4.40
2019-01-19T01:27:19.120Z,4.70
2019-01-19T01:28:19.117Z,4.70
2019-01-19T01:29:19.109Z,4.10
2019-01-19T01:30:19.100Z,4.20
2019-01-19T01:31:19.082Z,4.20
2019-01-19T01:32:19.074Z,4.30
2019-01-19T01:33:19.071Z,4.50
2019-01-19T01:34:19.060Z,3.90
2019-01-19T01:35:19.049Z,4.30
2019-01-19T01:36:19.040Z,4.10
2019-01-19T01:37:19.031Z,4.60
2019-01-19T01:38:19.021Z,4.00
2019-01-19T01:39:19.012Z,4.30
2019-01-19T01:40:18.994Z,4.00
2019-01-19T01:41:18.982Z,4.40
2019-01-19T01:42:18.972Z,4.10
2019-01-19T01:43:18.970Z,4.10
2019-01-19T01:44:18.944Z,4.60
2019-01-19T01:45:18.939Z,4.30
2019-01-19T01:46:18.926Z,4.40
2019-01-19T01:47:18.924Z,4.30
2019-01-19T01:48:18.972Z,4.30
2019-01-19T01:49:18.892Z,4.50
2019-01-19T01:50:18.892Z,4.60
2019-01-19T01:51:18.869Z,4.20
2019-01-19T01:52:18.862Z,4.10
2019-01-19T01:53:18.857Z,4.50
2019-01-19T01:54:18.847Z,4.30
2019-01-19T01:55:18.834Z,4.50
2019-01-19T01:56:18.818Z,4.00
2019-01-19T01:57:18.810Z,4.70
2019-01-19T01:58:18.804Z,4.50
2019-01-19T01:59:18.788Z,4.20
2019-01-19T02:00:18.782Z,4.10
2019-01-19T02:01:18.764Z,4.00
2019-01-19T02:02:18.764Z,3.90
2019-01-19T02:03:18.744Z,4.30
2019-01-19T02:04:18.740Z,4.00
2019-01-19T02:05:18.731Z,4.20
2019-01-19T02:06:18.717Z,4.40
2019-01-19T02:07:18.703Z,4.20
2019-01-19T02:08:18.700Z,4.00
2019-01-19T02:09:18.680Z,4.30
2019-01-19T02:10:18.675Z,4.00
2019-01-19T02:11:18.664Z,4.10
2019-01-19T02:12:18.657Z,4.50
2019-01-19T02:13:18.642Z,4.00
2019-01-19T02:14:18.626Z,3.80
2019-01-19T02:15:18.626Z,4.30
2019-01-19T02:16:18.607Z,4.30
2019-01-19T02:17:18.598Z,4.20
2019-01-19T02:18:18.596Z,4.00
2019-01-19T02:19:18.581Z,4.20
2019-01-19T02:20:18.566Z,4.10
2019-01-19T02:21:18.555Z,4.00
2019-01-19T02:22:18.549Z,4.30
2019-01-19T02:23:18.533Z,4.00
2019-01-19T02:24:18.521Z,4.10
2019-01-19T02:25:18.518Z,4.30
2019-01-19T02:26:18.500Z,4.10
2019-01-19T02:27:18.492Z,3.70
2019-01-19T02:28:18.482Z,4.10
2019-01-19T02:29:18.472Z,3.80
2019-01-19T02:30:18.462Z,4.00
2019-01-19T02:31:18.455Z,4.00
2019-01-19T02:32:18.442Z,4.20
2019-01-19T02:33:18.440Z,4.10
2019-01-19T02:34:18.422Z,4.10
2019-01-19T02:35:18.412Z,4.10
2019-01-19T02:36:18.400Z,4.20
2019-01-19T02:37:18.397Z,4.30
2019-01-19T02:38:18.379Z,4.00
2019-01-19T02:39:18.369Z,4.20
2019-01-19T02:40:18.359Z,4.10
2019-01-19T02:41:18.353Z,4.20
2019-01-19T02:42:18.371Z,3.90
2019-01-19T02:43:18.335Z,4.00
2019-01-19T02:44:18.312Z,4.30
2019-01-19T02:45:18.304Z,4.10
2019-01-19T02:46:18.290Z,4.00
2019-01-19T02:47:18.290Z,3.90
2019-01-19T02:48:18.273Z,4.30
2019-01-19T02:49:18.269Z,3.90
2019-01-19T02:50:18.246Z,4.10
2019-01-19T02:51:18.244Z,4.10
2019-01-19T02:52:18.236Z,4.00
2019-01-19T02:53:18.216Z,3.90
2019-01-19T02:54:18.212Z,3.80
2019-01-19T02:55:18.210Z,4.30
2019-01-19T02:56:18.190Z,3.90
2019-01-19T02:57:18.170Z,4.10
2019-01-19T02:58:18.168Z,4.10
2019-01-19T02:59:18.163Z,3.80
2019-01-19T03:00:18.151Z,4.20
2019-01-19T03:01:18.141Z,3.80
2019-01-19T03:02:18.125Z,3.90
2019-01-19T03:03:18.112Z,4.00
2019-01-19T03:04:18.102Z,4.00
2019-01-19T03:05:18.093Z,3.80
2019-01-19T03:06:18.086Z,3.90
2019-01-19T03:07:18.072Z,3.90
2019-01-19T03:08:18.063Z,4.30
2019-01-19T03:09:18.063Z,4.00
2019-01-19T03:10:18.040Z,3.90
2019-01-19T03:11:18.036Z,4.10
2019-01-19T03:12:18.021Z,3.90
2019-01-19T03:13:18.010Z,3.90
2019-01-19T03:14:18.005Z,4.20
2019-01-19T03:15:17.992Z,4.00
2019-01-19T03:16:17.974Z,3.80
2019-01-19T03:17:17.968Z,4.20
2019-01-19T03:18:17.955Z,4.10
2019-01-19T03:19:17.946Z,3.90
2019-01-19T03:20:17.938Z,4.20
2019-01-19T03:21:17.930Z,3.90
2019-01-19T03:22:19.498Z,4.30
2019-01-19T03:23:17.902Z,4.20
2019-01-19T03:24:17.899Z,4.10
2019-01-19T03:25:17.886Z,4.00
2019-01-19T03:26:17.876Z,4.10
2019-01-19T03:27:17.867Z,4.40
2019-01-19T03:28:17.851Z,4.30
2019-01-19T03:29:17.843Z,3.90
2019-01-19T03:30:17.839Z,4.50
2019-01-19T03:31:17.815Z,4.30
2019-01-19T03:32:17.810Z,4.20
2019-01-19T03:33:17.806Z,4.20
2019-01-19T03:34:17.790Z,3.70
2019-01-19T03:35:17.779Z,4.20
2019-01-19T03:36:17.767Z,4.50
2019-01-19T03:37:17.751Z,4.00
2019-01-19T03:38:17.770Z,4.30
2019-01-19T03:39:17.738Z,4.60
2019-01-19T03:40:17.727Z,4.20
2019-01-19T03:41:17.717Z,4.00
2019-01-19T03:42:17.710Z,4.10
2019-01-19T03:43:17.692Z,4.50
2019-01-19T03:44:17.678Z,4.20
2019-01-19T03:45:17.671Z,4.10
2019-01-19T03:46:17.660Z,4.20
2019-01-19T03:47:17.652Z,4.00
2019-01-19T03:48:17.642Z,4.20
2019-01-19T03:49:17.632Z,4.50
2019-01-19T03:50:17.617Z,4.70
2019-01-19T03:51:17.610Z,4.30
2019-01-19T03:52:17.594Z,4.30
2019-01-19T03:53:17.590Z,4.60
2019-01-19T03:54:17.572Z,4.60
2019-01-19T03:55:17.560Z,5.00
2019-01-19T03:56:17.552Z,4.50
2019-01-19T03:57:17.547Z,4.50
2019-01-19T03:58:17.534Z,4.50
2019-01-19T03:59:17.526Z,4.50
2019-01-19T04:00:17.510Z,4.30
2019-01-19T04:01:17.512Z,4.50
2019-01-19T04:02:17.512Z,4.30
2019-01-19T04:03:17.490Z,4.30
2019-01-19T04:04:17.478Z,4.40
2019-01-19T04:05:17.453Z,4.60
2019-01-19T04:06:17.454Z,4.00
2019-01-19T04:07:17.444Z,4.10
2019-01-19T04:08:17.430Z,4.50
2019-01-19T04:09:17.421Z,4.90
2019-01-19T04:10:17.409Z,4.50
2019-01-19T04:11:17.396Z,4.80
2019-01-19T04:12:17.384Z,4.60
2019-01-19T04:13:17.372Z,4.90
2019-01-19T04:14:17.363Z,4.60
2019-01-19T04:15:17.352Z,4.50
2019-01-19T04:16:17.339Z,4.60
2019-01-19T04:17:17.336Z,4.70
2019-01-19T04:18:17.327Z,4.80
2019-01-19T04:19:17.312Z,4.90
2019-01-19T04:20:17.314Z,4.80
2019-01-19T04:21:17.290Z,4.50
2019-01-19T04:22:17.282Z,4.60
2019-01-19T04:23:17.270Z,4.80
2019-01-19T04:24:17.258Z,4.30
2019-01-19T04:25:17.252Z,5.20
2019-01-19T04:26:17.234Z,4.90
2019-01-19T04:27:17.224Z,4.90
2019-01-19T04:28:17.216Z,4.60
2019-01-19T04:29:17.203Z,5.00
2019-01-19T04:30:17.196Z,4.90
2019-01-19T04:31:17.190Z,4.80
2019-01-19T04:32:17.176Z,5.10
2019-01-19T04:33:17.160Z,4.90
2019-01-19T04:34:17.150Z,4.80
2019-01-19T04:35:17.138Z,5.00
2019-01-19T04:36:21.631Z,5.00
2019-01-19T04:37:17.116Z,5.30
2019-01-19T04:38:17.117Z,5.20
2019-01-19T04:39:17.107Z,5.10
2019-01-19T04:40:17.094Z,5.20
2019-01-19T04:41:17.085Z,4.90
2019-01-19T04:42:17.066Z,4.90
2019-01-19T04:43:17.054Z,5.00
2019-01-19T04:44:17.045Z,4.90
2019-01-19T04:45:17.038Z,5.20
2019-01-19T04:46:17.029Z,4.80
2019-01-19T04:47:17.015Z,4.50
2019-01-19T04:48:17.004Z,5.00
2019-01-19T04:49:16.998Z,5.10
2019-01-19T04:50:16.978Z,4.50
2019-01-19T04:51:16.965Z,4.50
2019-01-19T04:52:16.959Z,4.40
2019-01-19T04:53:16.952Z,4.70
2019-01-19T04:54:16.940Z,5.00
2019-01-19T04:55:16.934Z,4.80
2019-01-19T04:56:16.916Z,4.60
2019-01-19T04:57:16.904Z,4.90
2019-01-19T04:58:16.896Z,4.80
2019-01-19T04:59:16.894Z,4.70
2019-01-19T05:00:17.899Z,4.80
2019-01-19T05:01:16.864Z,5.00
2019-01-19T05:02:16.852Z,4.90
2019-01-19T05:03:16.845Z,4.90
2019-01-19T05:04:16.826Z,4.80
2019-01-19T05:05:16.825Z,5.10
2019-01-19T05:06:16.815Z,4.90
2019-01-19T05:07:16.810Z,4.80
2019-01-19T05:08:16.788Z,5.00
2019-01-19T05:09:16.789Z,5.00
2019-01-19T05:10:16.776Z,5.00
2019-01-19T05:11:16.756Z,5.10
2019-01-19T05:12:16.748Z,4.90
2019-01-19T05:13:16.744Z,4.80
2019-01-19T05:14:16.726Z,4.90
2019-01-19T05:15:16.723Z,5.10
2019-01-19T05:16:16.704Z,4.90
2019-01-19T05:17:16.696Z,4.60
2019-01-19T05:18:16.682Z,4.90
2019-01-19T05:19:16.680Z,5.20
2019-01-19T05:20:16.661Z,5.10
2019-01-19T05:21:16.650Z,5.00
2019-01-19T05:22:16.646Z,4.90
2019-01-19T05:23:16.634Z,5.10
2019-01-19T05:24:16.620Z,5.40
2019-01-19T05:25:16.614Z,5.00
2019-01-19T05:26:16.604Z,5.00
2019-01-19T05:27:16.588Z,5.30
2019-01-19T05:28:16.585Z,5.40
2019-01-19T05:29:16.569Z,5.60
2019-01-19T05:30:16.555Z,5.60
2019-01-19T05:31:16.547Z,5.40
2019-01-19T05:32:16.543Z,5.90
2019-01-19T05:33:16.527Z,5.40
2019-01-19T05:34:16.524Z,5.90
2019-01-19T05:35:16.527Z,6.10
2019-01-19T05:36:16.493Z,5.80
2019-01-19T05:37:16.495Z,6.00
2019-01-19T05:38:16.480Z,5.70
2019-01-19T05:39:16.461Z,5.70
2019-01-19T05:40:16.457Z,5.90
2019-01-19T05:41:16.448Z,5.90
2019-01-19T05:42:16.428Z,5.60
2019-01-19T05:43:16.432Z,6.30
2019-01-19T05:44:16.412Z,6.00
2019-01-19T05:45:16.394Z,6.00
2019-01-19T05:46:21.334Z,5.80
2019-01-19T05:47:17.378Z,5.90
2019-01-19T05:48:16.371Z,6.10
2019-01-19T05:49:16.364Z,6.20
2019-01-19T05:50:16.358Z,5.90
2019-01-19T05:51:16.334Z,5.70
2019-01-19T05:52:16.323Z,6.10
2019-01-19T05:53:16.312Z,6.60
2019-01-19T05:54:16.302Z,6.40
2019-01-19T05:55:16.290Z,6.30
2019-01-19T05:56:16.289Z,6.10
2019-01-19T05:57:16.270Z,6.00
2019-01-19T05:58:16.268Z,5.80
2019-01-19T05:59:16.250Z,6.30
2019-01-19T06:00:16.248Z,6.60
2019-01-19T06:01:16.229Z,6.30
2019-01-19T06:02:16.220Z,6.70
2019-01-19T06:03:16.216Z,6.40
2019-01-19T06:04:16.198Z,6.40
2019-01-19T06:05:16.185Z,6.50
2019-01-19T06:06:16.182Z,6.90
2019-01-19T06:07:16.168Z,5.80
2019-01-19T06:08:16.156Z,6.80
2019-01-19T06:09:16.152Z,6.70
2019-01-19T06:10:16.134Z,6.60
2019-01-19T06:11:16.124Z,7.10
2019-01-19T06:12:16.115Z,6.10
2019-01-19T06:13:16.104Z,7.00
2019-01-19T06:14:16.092Z,7.40
2019-01-19T06:15:16.080Z,6.70
2019-01-19T06:16:16.066Z,6.90
2019-01-19T06:17:16.058Z,7.20
2019-01-19T06:18:16.052Z,7.10
2019-01-19T06:19:16.061Z,6.80
2019-01-19T06:20:16.028Z,7.40
2019-01-19T06:21:16.016Z,6.90
2019-01-19T06:22:16.009Z,7.60
2019-01-19T06:23:16.002Z,7.60
2019-01-19T06:24:15.985Z,6.90
2019-01-19T06:25:15.995Z,7.00
2019-01-19T06:26:15.964Z,7.20
2019-01-19T06:27:15.953Z,7.60
2019-01-19T06:28:15.942Z,7.10
2019-01-19T06:29:15.929Z,7.90
2019-01-19T06:30:15.918Z,8.20
2019-01-19T06:31:15.921Z,9.80
2019-01-19T06:32:15.900Z,10.20
2019-01-19T06:33:15.893Z,9.60
2019-01-19T06:34:15.877Z,9.70
2019-01-19T06:35:15.868Z,10.40
2019-01-19T06:36:15.877Z,10.40
2019-01-19T06:37:15.855Z,10.40
2019-01-19T06:38:15.840Z,10.70
2019-01-19T06:39:15.824Z,10.80
2019-01-19T06:40:15.817Z,9.50
2019-01-19T06:41:15.815Z,10.70
2019-01-19T06:42:15.800Z,10.80
2019-01-19T06:43:15.786Z,11.00
2019-01-19T06:44:15.772Z,12.70
2019-01-19T06:45:15.772Z,12.90
2019-01-19T06:46:15.749Z,12.80
2019-01-19T06:47:15.740Z,12.80
2019-01-19T06:48:15.736Z,12.50
2019-01-19T06:49:15.718Z,12.40
2019-01-19T06:50:15.731Z,12.90
2019-01-19T06:51:15.702Z,12.60
2019-01-19T06:52:15.701Z,12.70
2019-01-19T06:53:15.680Z,12.10
2019-01-19T06:54:15.668Z,12.40
2019-01-19T06:55:15.658Z,12.50
2019-01-19T06:56:15.652Z,12.00
2019-01-19T06:57:15.634Z,12.30
2019-01-19T06:58:15.632Z,13.20
2019-01-19T06:59:17.541Z,13.10
2019-01-19T07:00:15.606Z,13.00
2019-01-19T07:01:15.596Z,13.30
2019-01-19T07:02:15.581Z,13.50
2019-01-19T07:03:15.578Z,12.50
2019-01-19T07:04:15.567Z,13.00
2019-01-19T07:05:15.554Z,11.90
2019-01-19T07:06:15.541Z,12.50
2019-01-19T07:07:15.534Z,12.40
2019-01-19T07:08:15.525Z,11.90
2019-01-19T07:09:15.514Z,12.00
2019-01-19T07:10:15.506Z,11.70
2019-01-19T07:11:15.496Z,12.50
2019-01-19T07:12:15.480Z,11.50
2019-01-19T07:13:15.480Z,11.30
2019-01-19T07:14:15.472Z,12.50
2019-01-19T07:15:15.460Z,11.60
2019-01-19T07:16:15.440Z,12.00
2019-01-19T07:17:15.446Z,12.50
2019-01-19T07:18:15.415Z,11.40
2019-01-19T07:19:15.408Z,11.90
2019-01-19T07:20:15.407Z,12.10
2019-01-19T07:21:15.398Z,12.10
2019-01-19T07:22:15.378Z,12.50
2019-01-19T07:23:15.366Z,12.40
2019-01-19T07:24:15.364Z,12.30
2019-01-19T07:25:15.341Z,12.00
2019-01-19T07:26:15.340Z,11.20
2019-01-19T07:27:15.330Z,11.40
2019-01-19T07:28:15.320Z,12.10
2019-01-19T07:29:15.305Z,11.90
2019-01-19T07:30:15.300Z,11.20
2019-01-19T07:31:15.282Z,12.50
2019-01-19T07:32:15.272Z,11.50
2019-01-19T07:33:15.258Z,12.00
2019-01-19T07:34:15.252Z,11.20
2019-01-19T07:35:15.238Z,11.10
2019-01-19T07:36:15.230Z,11.20
2019-01-19T07:37:15.224Z,11.10
2019-01-19T07:38:15.211Z,11.40
2019-01-19T07:39:15.198Z,11.60
2019-01-19T07:40:15.194Z,12.10
2019-01-19T07:41:15.180Z,11.80
2019-01-19T07:42:15.172Z,12.20
2019-01-19T07:43:15.163Z,12.10
2019-01-19T07:44:15.144Z,11.60
2019-01-19T07:45:15.134Z,11.50
2019-01-19T07:46:15.121Z,12.00
2019-01-19T07:47:15.116Z,12.40
2019-01-19T07:48:15.108Z,12.20
2019-01-19T07:49:15.093Z,11.70
2019-01-19T07:50:15.084Z,11.90
2019-01-19T07:51:15.074Z,12.50
2019-01-19T07:52:15.062Z,13.40
2019-01-19T07:53:15.053Z,12.80
2019-01-19T07:54:15.050Z,12.20
2019-01-19T07:55:15.028Z,13.20
2019-01-19T07:56:15.024Z,13.00
2019-01-19T07:57:15.008Z,13.30
2019-01-19T07:58:14.994Z,13.70
2019-01-19T07:59:14.984Z,12.90
2019-01-19T08:00:14.979Z,13.30
2019-01-19T08:01:14.963Z,13.20
2019-01-19T08:02:14.952Z,12.90
2019-01-19T08:03:14.944Z,12.80
2019-01-19T08:04:14.930Z,13.30
2019-01-19T08:05:14.922Z,13.10
2019-01-19T08:06:14.913Z,13.50
2019-01-19T08:07:17.340Z,13.00
2019-01-19T08:08:14.913Z,13.40
2019-01-19T08:09:14.882Z,13.00
2019-01-19T08:10:14.866Z,12.80
2019-01-19T08:11:14.858Z,13.20
2019-01-19T08:12:14.851Z,12.70
2019-01-19T08:13:14.832Z,12.70
2019-01-19T08:14:14.829Z,13.00
2019-01-19T08:15:14.826Z,13.40
2019-01-19T08:16:14.810Z,12.70
2019-01-19T08:17:14.795Z,13.00
2019-01-19T08:18:14.786Z,12.50
2019-01-19T08:19:14.782Z,12.20
2019-01-19T08:20:14.762Z,12.80
2019-01-19T08:21:14.754Z,12.50
2019-01-19T08:22:14.738Z,12.30
2019-01-19T08:23:14.732Z,11.60
2019-01-19T08:24:14.724Z,12.00
2019-01-19T08:25:14.707Z,12.00
2019-01-19T08:26:14.702Z,11.60
2019-01-19T08:27:14.684Z,11.60
2019-01-19T08:28:14.683Z,12.20
2019-01-19T08:29:14.670Z,11.90
2019-01-19T08:30:14.658Z,12.00
2019-01-19T08:31:14.655Z,11.80
2019-01-19T08:32:14.635Z,12.30
2019-01-19T08:33:14.628Z,12.40
2019-01-19T08:34:14.612Z,12.20
2019-01-19T08:35:14.604Z,12.40
2019-01-19T08:36:14.590Z,12.20
2019-01-19T08:37:14.589Z,12.70
2019-01-19T08:38:14.582Z,12.00
2019-01-19T08:39:14.567Z,12.50
2019-01-19T08:40:14.546Z,12.00
2019-01-19T08:41:14.539Z,12.50
2019-01-19T08:42:14.530Z,12.40
2019-01-19T08:43:14.518Z,12.30
2019-01-19T08:44:14.506Z,12.20
2019-01-19T08:45:14.509Z,12.40
2019-01-19T08:46:14.484Z,12.10
2019-01-19T08:47:14.478Z,12.00
2019-01-19T08:48:14.467Z,12.40
2019-01-19T08:49:14.451Z,12.40
2019-01-19T08:50:14.442Z,12.30
2019-01-19T08:51:14.434Z,12.10
2019-01-19T08:52:14.420Z,12.50
2019-01-19T08:53:14.409Z,12.50
2019-01-19T08:54:14.396Z,12.50
2019-01-19T08:55:14.438Z,12.50
2019-01-19T08:56:14.380Z,13.00
2019-01-19T08:57:14.387Z,12.80
2019-01-19T08:58:14.364Z,12.40
2019-01-19T08:59:14.347Z,12.60
2019-01-19T09:00:14.334Z,12.50
2019-01-19T09:01:14.320Z,13.10
2019-01-19T09:02:14.312Z,12.70
2019-01-19T09:03:14.303Z,12.10
2019-01-19T09:04:14.316Z,12.80
2019-01-19T09:05:14.280Z,12.30
2019-01-19T09:06:14.271Z,12.60
2019-01-19T09:07:14.260Z,12.30
2019-01-19T09:08:14.245Z,12.40
2019-01-19T09:09:14.242Z,12.80
2019-01-19T09:10:14.228Z,12.50
2019-01-19T09:11:14.221Z,12.30
2019-01-19T09:12:14.204Z,12.50
2019-01-19T09:13:14.208Z,12.70
2019-01-19T09:14:14.186Z,12.70
2019-01-19T09:15:14.167Z,12.00
2019-01-19T09:16:14.156Z,13.10
2019-01-19T09:17:14.151Z,12.40
2019-01-19T09:18:14.140Z,12.10
2019-01-19T09:19:14.132Z,12.90
2019-01-19T09:20:14.140Z,12.70
2019-01-19T09:21:14.102Z,12.60
2019-01-19T09:22:14.094Z,13.00
2019-01-19T09:23:14.090Z,12.80
2019-01-19T09:24:14.076Z,13.10
2019-01-19T09:25:14.066Z,13.10
2019-01-19T09:26:14.056Z,12.90
2019-01-19T09:27:14.049Z,13.20
2019-01-19T09:28:14.032Z,13.40
2019-01-19T09:29:14.027Z,13.70
2019-01-19T09:30:14.009Z,13.10
2019-01-19T09:31:14.005Z,13.40
2019-01-19T09:32:13.992Z,13.20
2019-01-19T09:33:13.980Z,13.90
2019-01-19T09:34:13.966Z,13.30
2019-01-19T09:35:13.955Z,14.30
2019-01-19T09:36:13.946Z,13.40
2019-01-19T09:37:13.937Z,14.30
2019-01-19T09:38:13.920Z,14.10
2019-01-19T09:39:13.909Z,13.30
2019-01-19T09:40:13.905Z,13.80
2019-01-19T09:41:13.911Z,13.90
2019-01-19T09:42:13.882Z,14.20
2019-01-19T09:43:13.924Z,14.00
2019-01-19T09:44:13.858Z,13.90
2019-01-19T09:45:13.849Z,14.20
2019-01-19T09:46:13.838Z,14.40
2019-01-19T09:47:13.826Z,13.90
2019-01-19T09:48:15.012Z,14.30
2019-01-19T09:49:13.812Z,14.60
2019-01-19T09:50:13.814Z,13.90
2019-01-19T09:51:13.780Z,14.10
2019-01-19T09:52:20.998Z,14.30
2019-01-19T09:53:14.760Z,14.70
2019-01-19T09:54:13.755Z,14.30
2019-01-19T09:55:13.744Z,14.50
2019-01-19T09:56:13.732Z,14.80
2019-01-19T09:57:13.724Z,14.80
2019-01-19T09:58:13.705Z,13.90
2019-01-19T09:59:13.697Z,14.90
2019-01-19T10:00:13.688Z,14.50
2019-01-19T10:01:13.674Z,15.60
2019-01-19T10:02:13.668Z,15.50
2019-01-19T10:03:13.991Z,15.00
2019-01-19T10:04:13.643Z,15.00
2019-01-19T10:05:13.636Z,15.50
2019-01-19T10:06:13.620Z,14.90
2019-01-19T10:07:13.608Z,16.10
2019-01-19T10:08:13.600Z,15.40
2019-01-19T10:09:13.591Z,15.20
2019-01-19T10:10:13.576Z,15.60
2019-01-19T10:11:13.570Z,14.90
2019-01-19T10:12:13.561Z,15.40
2019-01-19T10:13:13.549Z,15.60
2019-01-19T10:14:13.542Z,15.40
2019-01-19T10:15:13.524Z,15.30
2019-01-19T10:16:13.517Z,15.70
2019-01-19T10:17:13.505Z,15.30
2019-01-19T10:18:13.496Z,15.40
2019-01-19T10:19:13.483Z,15.30
2019-01-19T10:20:13.474Z,15.20
2019-01-19T10:21:13.466Z,15.40
2019-01-19T10:22:13.452Z,15.50
2019-01-19T10:23:13.455Z,15.00
2019-01-19T10:24:13.432Z,14.80
2019-01-19T10:25:13.418Z,15.80
2019-01-19T10:26:13.410Z,15.60
2019-01-19T10:27:13.397Z,15.80
2019-01-19T10:28:13.388Z,15.40
2019-01-19T10:29:13.388Z,15.70
2019-01-19T10:30:13.362Z,15.40
2019-01-19T10:31:13.352Z,14.70
2019-01-19T10:32:13.348Z,14.70
2019-01-19T10:33:13.331Z,16.00
2019-01-19T10:34:13.320Z,15.90
2019-01-19T10:35:13.320Z,16.00
2019-01-19T10:36:13.307Z,15.20
2019-01-19T10:37:13.292Z,15.90
2019-01-19T10:38:13.290Z,15.50
2019-01-19T10:39:13.270Z,15.00
2019-01-19T10:40:13.256Z,15.00
2019-01-19T10:41:13.250Z,15.90
2019-01-19T10:42:13.303Z,15.30
2019-01-19T10:43:13.220Z,15.40
2019-01-19T10:44:13.217Z,14.90
2019-01-19T10:45:13.204Z,15.80
2019-01-19T10:46:13.190Z,15.50
2019-01-19T10:47:13.184Z,15.40
2019-01-19T10:48:13.166Z,15.60
2019-01-19T10:49:13.162Z,16.50
2019-01-19T10:50:13.153Z,15.70
2019-01-19T10:51:13.138Z,15.90
2019-01-19T10:52:13.128Z,15.70
2019-01-19T10:53:13.448Z,15.30
2019-01-19T10:54:13.101Z,15.10
2019-01-19T10:55:13.096Z,15.40
2019-01-19T10:56:13.084Z,15.60
2019-01-19T10:57:13.072Z,16.30
2019-01-19T10:58:13.062Z,15.50
2019-01-19T10:59:13.055Z,15.50
2019-01-19T11:00:13.048Z,15.80
2019-01-19T11:01:13.033Z,15.60
2019-01-19T11:02:13.022Z,15.00
2019-01-19T11:03:13.011Z,15.60
2019-01-19T11:04:13.004Z,16.00
2019-01-19T11:05:12.985Z,15.80
2019-01-19T11:06:12.978Z,15.40
2019-01-19T11:07:12.969Z,15.90
2019-01-19T11:08:12.958Z,15.90
2019-01-19T11:09:12.944Z,16.20
2019-01-19T11:10:12.937Z,15.60
2019-01-19T11:11:12.939Z,15.10
2019-01-19T11:12:12.916Z,16.50
2019-01-19T11:13:12.907Z,16.20
2019-01-19T11:14:12.896Z,15.10
2019-01-19T11:15:12.887Z,15.00
2019-01-19T11:16:12.887Z,15.30
2019-01-19T11:17:12.864Z,15.10
2019-01-19T11:18:12.856Z,15.10
2019-01-19T11:19:12.842Z,15.10
2019-01-19T11:20:12.834Z,15.20
2019-01-19T11:21:12.824Z,15.20
2019-01-19T11:22:12.806Z,14.70
2019-01-19T11:23:12.794Z,14.40
2019-01-19T11:24:12.783Z,14.70
2019-01-19T11:25:12.775Z,14.20
2019-01-19T11:26:12.777Z,14.50
2019-01-19T11:27:12.753Z,15.00
2019-01-19T11:28:12.746Z,15.00
2019-01-19T11:29:12.735Z,15.40
2019-01-19T11:30:12.730Z,14.60
2019-01-19T11:31:12.723Z,14.70
2019-01-19T11:32:12.710Z,15.10
2019-01-19T11:33:14.031Z,15.00
2019-01-19T11:34:12.682Z,15.10
2019-01-19T11:35:12.671Z,15.50
2019-01-19T11:36:12.655Z,14.60
2019-01-19T11:37:12.662Z,15.60
2019-01-19T11:38:13.703Z,14.60
2019-01-19T11:39:13.630Z,14.90
2019-01-19T11:40:12.630Z,14.40
2019-01-19T11:41:12.657Z,15.50
2019-01-19T11:42:12.590Z,15.30
2019-01-19T11:43:12.597Z,15.20
2019-01-19T11:44:12.568Z,14.80
2019-01-19T11:45:12.560Z,14.50
2019-01-19T11:46:12.555Z,14.20
2019-01-19T11:47:12.538Z,15.30
2019-01-19T11:48:12.526Z,14.90
2019-01-19T11:49:12.514Z,14.30
2019-01-19T11:50:12.502Z,14.30
2019-01-19T11:51:12.501Z,14.60
2019-01-19T11:52:12.486Z,14.90
2019-01-19T11:53:12.474Z,14.70
2019-01-19T11:54:12.466Z,14.30
2019-01-19T11:55:12.452Z,14.70
2019-01-19T11:56:12.470Z,14.90
2019-01-19T11:57:12.470Z,15.30
2019-01-19T11:58:12.440Z,15.20
2019-01-19T11:59:12.404Z,15.50
2019-01-19T12:00:12.395Z,15.20
2019-01-19T12:01:12.420Z,15.90
2019-01-19T12:02:12.380Z,15.30
2019-01-19T12:03:12.367Z,15.00
2019-01-19T12:04:12.352Z,15.30
2019-01-19T12:05:12.349Z,15.30
2019-01-19T12:06:12.334Z,15.30
2019-01-19T12:07:12.325Z,14.90
2019-01-19T12:08:19.168Z,14.60
2019-01-19T12:09:13.300Z,13.80
2019-01-19T12:10:12.294Z,13.50
2019-01-19T12:11:12.292Z,14.00
2019-01-19T12:12:12.274Z,14.70
2019-01-19T12:13:12.256Z,14.70
2019-01-19T12:14:12.252Z,14.40
2019-01-19T12:15:12.241Z,14.80
2019-01-19T12:16:12.225Z,14.40
2019-01-19T12:17:12.216Z,15.30
2019-01-19T12:18:12.204Z,13.70
2019-01-19T12:19:12.193Z,13.60
2019-01-19T12:20:12.311Z,13.50
2019-01-19T12:21:12.170Z,13.30
2019-01-19T12:22:12.159Z,13.90
2019-01-19T12:23:12.152Z,13.80
2019-01-19T12:24:12.141Z,14.50
2019-01-19T12:25:12.125Z,14.30
2019-01-19T12:26:12.157Z,15.10
2019-01-19T12:27:12.102Z,14.50
2019-01-19T12:28:12.102Z,14.10
2019-01-19T12:29:12.084Z,14.10
2019-01-19T12:30:12.076Z,14.50
2019-01-19T12:31:12.065Z,13.90
2019-01-19T12:32:12.054Z,13.90
2019-01-19T12:33:12.040Z,13.50
2019-01-19T12:34:12.034Z,14.20
2019-01-19T12:35:12.018Z,14.00
2019-01-19T12:36:12.006Z,13.90
2019-01-19T12:37:12.004Z,13.40
2019-01-19T12:38:12.017Z,13.30
2019-01-19T12:39:11.979Z,13.00
2019-01-19T12:40:11.968Z,13.00
2019-01-19T12:41:11.957Z,13.50
2019-01-19T12:42:11.948Z,13.50
2019-01-19T12:43:11.942Z,13.30
2019-01-19T12:44:11.920Z,13.50
2019-01-19T12:45:11.920Z,13.80
2019-01-19T12:46:11.910Z,13.90
2019-01-19T12:47:11.906Z,14.00
2019-01-19T12:48:11.993Z,13.60
2019-01-19T12:49:11.871Z,12.80
2019-01-19T12:50:11.864Z,13.00
2019-01-19T12:51:11.865Z,12.60
2019-01-19T12:52:11.840Z,13.10
2019-01-19T12:53:11.832Z,12.60
2019-01-19T12:54:11.820Z,12.90
2019-01-19T12:55:11.819Z,12.20
2019-01-19T12:56:11.808Z,12.60
2019-01-19T12:57:11.794Z,12.80
2019-01-19T12:58:11.780Z,12.70
2019-01-19T12:59:11.764Z,12.60
2019-01-19T13:00:11.762Z,12.90
2019-01-19T13:01:11.759Z,12.50
2019-01-19T13:02:11.765Z,13.00
2019-01-19T13:03:11.748Z,12.60
2019-01-19T13:04:11.725Z,13.10
2019-01-19T13:05:11.699Z,13.10